Acequia, ID

10:21 AM MDT on August 23, 2014 (GMT -0600)
ITD Heyburn Interchange ID US | Change Station
CLOSE
Current Station
Personal Weather Station
Location: Heyburn, ID
Elevation: 4161 ft
Nearby Weather Stations

Elev 4161 ft 42.57 °N, 113.73 °W | Updated 51 minutes ago

Partly Cloudy
Partly Cloudy
55 °F
Feels Like 55 °F
N
12
Wind Variable Wind from West
Gusts 17.0 mph

Today
High -- | Low -- °F
--% Chance of Precip.
Yesterday
High -- | Low -- °F
Precip. -- in
6:50 AM 8:24 PM
Waning Crescent, 3% visible
Pressure 30.01 in
Visibility 10.0 miles
Clouds Few 2300 ft
Dew Point 45 °F
Humidity 70%
Rainfall -999.00 in
Snow Depth Not available.
UV 4 out of 12
Pollen 7.00 out of 12
Air Quality Not available.
Flu Activity Not available.
METAR KBYI 231553Z AUTO 26008G18KT 10SM FEW023 14/08 A3007 RMK AO2 SLP161 T01390083

More Conditions Fewer Conditions

Pressure 30.01 in
Visibility 10.0 miles
Clouds Few 2300 ft
Dew Point 45 °F
Humidity 70%
Rainfall -999.00 in
Snow Depth Not available.
UV 4 out of 12
Pollen 7.00 out of 12
Air Quality Not available.
Flu Activity Not available.
METAR KBYI 231553Z AUTO 26008G18KT 10SM FEW023 14/08 A3007 RMK AO2 SLP161 T01390083

More Conditions Fewer Conditions

10-Day Weather Forecast

Almanac

Astronomy

Aug. 23, 2014 Rise Set
Actual Time 6:50 AM MDT 8:24 PM MDT
Civil Twilight 6:20 AM MDT 8:53 PM MDT
Nautical Twilight 5:44 AM MDT 9:29 PM MDT
Astronomical Twilight 5:06 AM MDT 10:07 PM MDT
Moon 5:09 AM MDT 7:11 PM MDT
Length of Visible Light 14h 33m
Length of Day
13h 33m
Tomorrow will be 2m 41s shorter.
Waning Crescent, 3% of the Moon is Illuminated
Today
Waning Crescent
Aug 25
New
Sep 2
First Quarter
Sep 8
Full
Sep 15
Last Quarter

Today's Extremes

State Highs State Lows

Community

WunderPhotos

Upload Photos

1,746,521 photos uploaded!

WunderBlogs® & News

By Dr. Jeff Masters
Director of Meteorology, Weather Underground
By Kari Strenfel
Meteorologist, Weather Underground
By Christopher C. Burt
Weather Historian, Weather Underground
August 23, 2014
August 23, 2014
August 23, 2014

Nearby

Snow Depth

Station Depth Elevation
Magic Mountain 1 in 6880 ft
Wildhorse Divide 0 in 6490 ft
Swede Peak 0 in 7640 ft
Wilson Creek 0 in 7120 ft
Hyndman 1 in 7440 ft

Earthquake Activity

City Distance Mag. Time & Date
No recent earthquake activity has been reported nearby.
Minimum magnitude displayed is 2.5.

Coastal Water Temperatures

Place Temperature
No Stations Reporting

Nearby Weather Stations